sensor_id;sensor_type;location;lat;lon;timestamp;temperature;humidity
46508;DHT22;32223;53.654;10.014;2022-09-03T00:02:45;14.90;99.90
46508;DHT22;32223;53.654;10.014;2022-09-03T00:05:37;14.90;99.90
46508;DHT22;32223;53.654;10.014;2022-09-03T00:08:41;14.90;99.90
46508;DHT22;32223;53.654;10.014;2022-09-03T00:11:32;14.80;99.90
46508;DHT22;32223;53.654;10.014;2022-09-03T00:14:06;14.80;99.90
46508;DHT22;32223;53.654;10.014;2022-09-03T00:16:50;14.80;99.90
46508;DHT22;32223;53.654;10.014;2022-09-03T00:19:27;14.80;99.90
46508;DHT22;32223;53.654;10.014;2022-09-03T00:22:02;14.80;99.90
46508;DHT22;32223;53.654;10.014;2022-09-03T00:24:35;14.80;99.90
46508;DHT22;32223;53.654;10.014;2022-09-03T00:27:09;14.70;99.90
46508;DHT22;32223;53.654;10.014;2022-09-03T00:29:45;14.70;99.90
46508;DHT22;32223;53.654;10.014;2022-09-03T00:32:26;14.70;99.90
46508;DHT22;32223;53.654;10.014;2022-09-03T00:35:01;14.60;99.90
46508;DHT22;32223;53.654;10.014;2022-09-03T00:37:27;14.70;99.90
46508;DHT22;32223;53.654;10.014;2022-09-03T00:39:55;14.60;99.90
46508;DHT22;32223;53.654;10.014;2022-09-03T00:42:41;14.60;99.90
46508;DHT22;32223;53.654;10.014;2022-09-03T00:48:01;14.50;99.90
46508;DHT22;32223;53.654;10.014;2022-09-03T00:53:12;14.50;99.90
46508;DHT22;32223;53.654;10.014;2022-09-03T01:01:20;14.40;99.90
46508;DHT22;32223;53.654;10.014;2022-09-03T01:04:00;14.30;99.90
46508;DHT22;32223;53.654;10.014;2022-09-03T01:11:58;14.20;99.90
46508;DHT22;32223;53.654;10.014;2022-09-03T01:14:49;14.20;99.90
46508;DHT22;32223;53.654;10.014;2022-09-03T01:25:51;14.20;99.90
46508;DHT22;32223;53.654;10.014;2022-09-03T01:28:22;14.20;99.90
46508;DHT22;32223;53.654;10.014;2022-09-03T01:34:12;14.30;99.90
46508;DHT22;32223;53.654;10.014;2022-09-03T01:37:07;14.30;99.90
46508;DHT22;32223;53.654;10.014;2022-09-03T01:39:49;14.30;99.90
46508;DHT22;32223;53.654;10.014;2022-09-03T01:42:24;14.30;99.90
46508;DHT22;32223;53.654;10.014;2022-09-03T01:53:12;14.20;99.90
46508;DHT22;32223;53.654;10.014;2022-09-03T01:58:45;14.10;99.90
46508;DHT22;32223;53.654;10.014;2022-09-03T02:01:28;14.10;99.90
46508;DHT22;32223;53.654;10.014;2022-09-03T02:03:55;14.10;99.90
46508;DHT22;32223;53.654;10.014;2022-09-03T02:06:25;14.10;99.90
46508;DHT22;32223;53.654;10.014;2022-09-03T02:08:51;14.10;99.90
46508;DHT22;32223;53.654;10.014;2022-09-03T02:11:17;14.10;99.90
46508;DHT22;32223;53.654;10.014;2022-09-03T02:13:53;14.10;99.90
46508;DHT22;32223;53.654;10.014;2022-09-03T02:16:23;14.10;99.90
46508;DHT22;32223;53.654;10.014;2022-09-03T02:18:58;14.00;99.90
46508;DHT22;32223;53.654;10.014;2022-09-03T02:21:27;14.00;99.90
46508;DHT22;32223;53.654;10.014;2022-09-03T02:23:56;14.00;99.90
46508;DHT22;32223;53.654;10.014;2022-09-03T02:26:23;14.00;99.90
46508;DHT22;32223;53.654;10.014;2022-09-03T02:28:50;14.00;99.90
46508;DHT22;32223;53.654;10.014;2022-09-03T02:31:16;13.90;99.90
46508;DHT22;32223;53.654;10.014;2022-09-03T02:33:45;13.90;99.90
46508;DHT22;32223;53.654;10.014;2022-09-03T02:36:14;13.90;99.90
46508;DHT22;32223;53.654;10.014;2022-09-03T02:38:43;13.80;99.90
46508;DHT22;32223;53.654;10.014;2022-09-03T02:41:09;13.80;99.90
46508;DHT22;32223;53.654;10.014;2022-09-03T02:46:21;13.70;99.90
46508;DHT22;32223;53.654;10.014;2022-09-03T02:48:48;13.60;99.90
46508;DHT22;32223;53.654;10.014;2022-09-03T02:51:14;13.60;99.90
46508;DHT22;32223;53.654;10.014;2022-09-03T02:53:41;13.60;99.90
46508;DHT22;32223;53.654;10.014;2022-09-03T02:56:07;13.50;99.90
46508;DHT22;32223;53.654;10.014;2022-09-03T02:58:32;13.50;99.90
46508;DHT22;32223;53.654;10.014;2022-09-03T03:00:58;13.40;99.90
46508;DHT22;32223;53.654;10.014;2022-09-03T03:03:24;13.50;99.90
46508;DHT22;32223;53.654;10.014;2022-09-03T03:05:53;13.50;99.90
46508;DHT22;32223;53.654;10.014;2022-09-03T03:08:24;13.40;99.90
46508;DHT22;32223;53.654;10.014;2022-09-03T03:10:55;13.40;99.90
46508;DHT22;32223;53.654;10.014;2022-09-03T03:13:23;13.40;99.90
46508;DHT22;32223;53.654;10.014;2022-09-03T03:15:49;13.40;99.90
46508;DHT22;32223;53.654;10.014;2022-09-03T03:18:15;13.30;99.90
46508;DHT22;32223;53.654;10.014;2022-09-03T03:20:42;13.30;99.90
46508;DHT22;32223;53.654;10.014;2022-09-03T03:23:08;13.30;99.90
46508;DHT22;32223;53.654;10.014;2022-09-03T03:25:36;13.30;99.90
46508;DHT22;32223;53.654;10.014;2022-09-03T03:28:03;13.20;99.90
46508;DHT22;32223;53.654;10.014;2022-09-03T03:30:29;13.20;99.90
46508;DHT22;32223;53.654;10.014;2022-09-03T03:32:55;13.20;99.90
46508;DHT22;32223;53.654;10.014;2022-09-03T03:35:22;13.20;99.90
46508;DHT22;32223;53.654;10.014;2022-09-03T03:37:48;13.20;99.90
46508;DHT22;32223;53.654;10.014;2022-09-03T03:40:14;13.10;99.90
46508;DHT22;32223;53.654;10.014;2022-09-03T03:42:40;13.10;99.90
46508;DHT22;32223;53.654;10.014;2022-09-03T03:45:06;13.10;99.90
46508;DHT22;32223;53.654;10.014;2022-09-03T03:47:32;13.10;99.90
46508;DHT22;32223;53.654;10.014;2022-09-03T03:49:59;13.10;99.90
46508;DHT22;32223;53.654;10.014;2022-09-03T03:52:25;13.00;99.90
46508;DHT22;32223;53.654;10.014;2022-09-03T03:54:52;13.00;99.90
46508;DHT22;32223;53.654;10.014;2022-09-03T03:57:19;13.10;99.90
46508;DHT22;32223;53.654;10.014;2022-09-03T03:59:46;13.10;99.90
46508;DHT22;32223;53.654;10.014;2022-09-03T04:02:12;13.00;99.90
46508;DHT22;32223;53.654;10.014;2022-09-03T04:04:38;13.10;99.90
46508;DHT22;32223;53.654;10.014;2022-09-03T04:07:03;13.00;99.90
46508;DHT22;32223;53.654;10.014;2022-09-03T04:09:29;13.00;99.90
46508;DHT22;32223;53.654;10.014;2022-09-03T04:11:55;13.00;99.90
46508;DHT22;32223;53.654;10.014;2022-09-03T04:14:24;12.90;99.90
46508;DHT22;32223;53.654;10.014;2022-09-03T04:16:50;12.90;99.90
46508;DHT22;32223;53.654;10.014;2022-09-03T04:19:16;13.00;99.90
46508;DHT22;32223;53.654;10.014;2022-09-03T04:21:42;12.90;99.90
46508;DHT22;32223;53.654;10.014;2022-09-03T04:24:09;12.90;99.90
46508;DHT22;32223;53.654;10.014;2022-09-03T04:26:35;12.90;99.90
46508;DHT22;32223;53.654;10.014;2022-09-03T04:29:06;12.80;99.90
46508;DHT22;32223;53.654;10.014;2022-09-03T04:31:32;12.80;99.90
46508;DHT22;32223;53.654;10.014;2022-09-03T04:33:59;12.80;99.90
46508;DHT22;32223;53.654;10.014;2022-09-03T04:36:26;12.80;99.90
46508;DHT22;32223;53.654;10.014;2022-09-03T04:38:54;12.80;99.90
46508;DHT22;32223;53.654;10.014;2022-09-03T04:41:23;12.80;99.90
46508;DHT22;32223;53.654;10.014;2022-09-03T04:43:50;12.80;99.90
46508;DHT22;32223;53.654;10.014;2022-09-03T04:46:17;12.80;99.90
46508;DHT22;32223;53.654;10.014;2022-09-03T04:48:46;12.80;99.90
46508;DHT22;32223;53.654;10.014;2022-09-03T04:51:14;12.80;99.90
46508;DHT22;32223;53.654;10.014;2022-09-03T04:53:42;12.90;99.90
46508;DHT22;32223;53.654;10.014;2022-09-03T04:56:13;12.90;99.90
46508;DHT22;32223;53.654;10.014;2022-09-03T04:58:40;12.90;99.90
46508;DHT22;32223;53.654;10.014;2022-09-03T05:01:15;12.90;99.90
46508;DHT22;32223;53.654;10.014;2022-09-03T05:03:42;13.00;99.90
46508;DHT22;32223;53.654;10.014;2022-09-03T05:06:07;13.10;99.90
46508;DHT22;32223;53.654;10.014;2022-09-03T05:08:34;13.10;99.90
46508;DHT22;32223;53.654;10.014;2022-09-03T05:11:05;13.10;99.90
46508;DHT22;32223;53.654;10.014;2022-09-03T05:13:31;13.10;99.90
46508;DHT22;32223;53.654;10.014;2022-09-03T05:16:03;13.10;99.90
46508;DHT22;32223;53.654;10.014;2022-09-03T05:18:30;13.20;99.90
46508;DHT22;32223;53.654;10.014;2022-09-03T05:21:00;13.20;99.90
46508;DHT22;32223;53.654;10.014;2022-09-03T05:23:28;13.30;99.90
46508;DHT22;32223;53.654;10.014;2022-09-03T05:25:59;13.30;99.90
46508;DHT22;32223;53.654;10.014;2022-09-03T05:28:25;13.40;99.90
46508;DHT22;32223;53.654;10.014;2022-09-03T05:31:02;13.40;99.90
46508;DHT22;32223;53.654;10.014;2022-09-03T05:33:28;13.40;99.90
46508;DHT22;32223;53.654;10.014;2022-09-03T05:36:00;13.40;99.90
46508;DHT22;32223;53.654;10.014;2022-09-03T05:38:26;13.40;99.90
46508;DHT22;32223;53.654;10.014;2022-09-03T05:40:52;13.50;99.90
46508;DHT22;32223;53.654;10.014;2022-09-03T05:43:17;13.50;99.90
46508;DHT22;32223;53.654;10.014;2022-09-03T05:45:45;13.60;99.90
46508;DHT22;32223;53.654;10.014;2022-09-03T05:48:11;13.50;99.90
46508;DHT22;32223;53.654;10.014;2022-09-03T05:50:36;13.60;99.90
46508;DHT22;32223;53.654;10.014;2022-09-03T05:53:02;13.60;99.90
46508;DHT22;32223;53.654;10.014;2022-09-03T05:55:28;13.70;99.90
46508;DHT22;32223;53.654;10.014;2022-09-03T05:57:53;13.70;99.90
46508;DHT22;32223;53.654;10.014;2022-09-03T06:00:19;13.80;99.90
46508;DHT22;32223;53.654;10.014;2022-09-03T06:02:51;13.90;99.90
46508;DHT22;32223;53.654;10.014;2022-09-03T06:05:18;14.00;99.90
46508;DHT22;32223;53.654;10.014;2022-09-03T06:07:44;14.10;99.90
46508;DHT22;32223;53.654;10.014;2022-09-03T06:10:13;14.20;99.90
46508;DHT22;32223;53.654;10.014;2022-09-03T06:12:42;14.30;99.90
46508;DHT22;32223;53.654;10.014;2022-09-03T06:15:09;14.40;99.90
46508;DHT22;32223;53.654;10.014;2022-09-03T06:17:37;14.40;99.90
46508;DHT22;32223;53.654;10.014;2022-09-03T06:20:03;14.50;99.90
46508;DHT22;32223;53.654;10.014;2022-09-03T06:22:28;14.60;99.90
46508;DHT22;32223;53.654;10.014;2022-09-03T06:24:55;14.70;99.90
46508;DHT22;32223;53.654;10.014;2022-09-03T06:27:21;14.70;99.90
46508;DHT22;32223;53.654;10.014;2022-09-03T06:29:47;14.80;99.90
46508;DHT22;32223;53.654;10.014;2022-09-03T06:32:12;14.80;99.90
46508;DHT22;32223;53.654;10.014;2022-09-03T06:34:38;14.90;99.90
46508;DHT22;32223;53.654;10.014;2022-09-03T06:37:04;15.00;99.90
46508;DHT22;32223;53.654;10.014;2022-09-03T06:39:29;15.10;99.90
46508;DHT22;32223;53.654;10.014;2022-09-03T06:41:55;15.20;99.90
46508;DHT22;32223;53.654;10.014;2022-09-03T06:44:21;15.30;99.90
46508;DHT22;32223;53.654;10.014;2022-09-03T06:46:47;15.30;99.90
46508;DHT22;32223;53.654;10.014;2022-09-03T06:49:13;15.40;99.90
46508;DHT22;32223;53.654;10.014;2022-09-03T06:51:39;15.50;99.90
46508;DHT22;32223;53.654;10.014;2022-09-03T06:54:07;15.60;99.90
46508;DHT22;32223;53.654;10.014;2022-09-03T06:56:34;15.60;99.90
46508;DHT22;32223;53.654;10.014;2022-09-03T06:59:05;15.70;99.90
46508;DHT22;32223;53.654;10.014;2022-09-03T07:01:32;15.80;99.90
46508;DHT22;32223;53.654;10.014;2022-09-03T07:04:00;15.90;99.90
46508;DHT22;32223;53.654;10.014;2022-09-03T07:06:34;16.00;99.90
46508;DHT22;32223;53.654;10.014;2022-09-03T07:09:07;16.10;99.90
46508;DHT22;32223;53.654;10.014;2022-09-03T07:11:33;16.20;99.90
46508;DHT22;32223;53.654;10.014;2022-09-03T07:14:00;16.30;99.90
46508;DHT22;32223;53.654;10.014;2022-09-03T07:16:33;16.40;99.90
46508;DHT22;32223;53.654;10.014;2022-09-03T07:18:59;16.50;99.90
46508;DHT22;32223;53.654;10.014;2022-09-03T07:21:27;16.50;99.90
46508;DHT22;32223;53.654;10.014;2022-09-03T07:23:54;16.60;99.90
46508;DHT22;32223;53.654;10.014;2022-09-03T07:26:28;16.70;99.90
46508;DHT22;32223;53.654;10.014;2022-09-03T07:28:55;16.80;99.90
46508;DHT22;32223;53.654;10.014;2022-09-03T07:31:33;16.90;99.90
46508;DHT22;32223;53.654;10.014;2022-09-03T07:34:01;17.10;99.90
46508;DHT22;32223;53.654;10.014;2022-09-03T07:36:34;17.10;99.90
46508;DHT22;32223;53.654;10.014;2022-09-03T07:39:00;17.20;99.90
46508;DHT22;32223;53.654;10.014;2022-09-03T07:41:26;17.20;99.90
46508;DHT22;32223;53.654;10.014;2022-09-03T07:43:52;17.30;99.90
46508;DHT22;32223;53.654;10.014;2022-09-03T07:46:20;17.30;99.90
46508;DHT22;32223;53.654;10.014;2022-09-03T07:48:50;17.40;99.90
46508;DHT22;32223;53.654;10.014;2022-09-03T07:51:17;17.50;99.90
46508;DHT22;32223;53.654;10.014;2022-09-03T07:53:44;17.50;99.90
46508;DHT22;32223;53.654;10.014;2022-09-03T07:56:10;17.60;99.90
46508;DHT22;32223;53.654;10.014;2022-09-03T07:58:38;17.70;99.90
46508;DHT22;32223;53.654;10.014;2022-09-03T08:01:12;17.70;99.90
46508;DHT22;32223;53.654;10.014;2022-09-03T08:03:42;17.90;99.90
46508;DHT22;32223;53.654;10.014;2022-09-03T08:06:09;18.00;99.90
46508;DHT22;32223;53.654;10.014;2022-09-03T08:08:35;18.00;99.90
46508;DHT22;32223;53.654;10.014;2022-09-03T08:11:10;18.10;99.90
46508;DHT22;32223;53.654;10.014;2022-09-03T08:13:40;18.20;99.90
46508;DHT22;32223;53.654;10.014;2022-09-03T08:16:10;18.30;99.90
46508;DHT22;32223;53.654;10.014;2022-09-03T08:18:37;18.40;99.90
46508;DHT22;32223;53.654;10.014;2022-09-03T08:21:11;18.60;99.90
46508;DHT22;32223;53.654;10.014;2022-09-03T08:23:45;18.70;99.90
46508;DHT22;32223;53.654;10.014;2022-09-03T08:26:12;18.90;99.90
46508;DHT22;32223;53.654;10.014;2022-09-03T08:28:38;19.00;99.90
46508;DHT22;32223;53.654;10.014;2022-09-03T08:31:10;19.10;99.90
46508;DHT22;32223;53.654;10.014;2022-09-03T08:33:41;19.20;99.90
46508;DHT22;32223;53.654;10.014;2022-09-03T08:36:12;19.20;99.90
46508;DHT22;32223;53.654;10.014;2022-09-03T08:38:40;19.20;99.90
46508;DHT22;32223;53.654;10.014;2022-09-03T08:44:28;19.70;99.90
46508;DHT22;32223;53.654;10.014;2022-09-03T08:47:04;19.80;99.90
46508;DHT22;32223;53.654;10.014;2022-09-03T08:52:02;20.20;99.90
46508;DHT22;32223;53.654;10.014;2022-09-03T08:54:31;20.40;99.90
46508;DHT22;32223;53.654;10.014;2022-09-03T08:57:00;20.50;99.90
46508;DHT22;32223;53.654;10.014;2022-09-03T08:59:30;20.60;99.90
46508;DHT22;32223;53.654;10.014;2022-09-03T09:07:31;20.80;99.90
46508;DHT22;32223;53.654;10.014;2022-09-03T09:10:13;20.90;99.90
46508;DHT22;32223;53.654;10.014;2022-09-03T09:21:07;20.50;99.90
46508;DHT22;32223;53.654;10.014;2022-09-03T09:23:47;20.50;99.90
46508;DHT22;32223;53.654;10.014;2022-09-03T09:26:15;20.60;99.90
46508;DHT22;32223;53.654;10.014;2022-09-03T09:28:46;20.50;99.90
46508;DHT22;32223;53.654;10.014;2022-09-03T09:31:15;20.40;99.90
46508;DHT22;32223;53.654;10.014;2022-09-03T09:33:43;20.10;99.90
46508;DHT22;32223;53.654;10.014;2022-09-03T09:36:11;20.00;99.90
46508;DHT22;32223;53.654;10.014;2022-09-03T09:38:40;20.00;99.90
46508;DHT22;32223;53.654;10.014;2022-09-03T09:43:35;20.40;99.40
46508;DHT22;32223;53.654;10.014;2022-09-03T09:46:28;20.60;99.50
46508;DHT22;32223;53.654;10.014;2022-09-03T09:48:56;20.70;99.20
46508;DHT22;32223;53.654;10.014;2022-09-03T09:51:23;20.90;98.60
46508;DHT22;32223;53.654;10.014;2022-09-03T09:54:15;20.90;97.70
46508;DHT22;32223;53.654;10.014;2022-09-03T09:56:43;20.80;97.90
46508;DHT22;32223;53.654;10.014;2022-09-03T09:59:10;20.80;96.80
46508;DHT22;32223;53.654;10.014;2022-09-03T10:01:40;20.90;97.00
46508;DHT22;32223;53.654;10.014;2022-09-03T10:04:30;21.10;96.70
46508;DHT22;32223;53.654;10.014;2022-09-03T10:09:44;21.40;94.60
46508;DHT22;32223;53.654;10.014;2022-09-03T10:12:23;21.50;93.30
46508;DHT22;32223;53.654;10.014;2022-09-03T10:17:59;21.80;93.10
46508;DHT22;32223;53.654;10.014;2022-09-03T10:20:38;21.90;93.10
46508;DHT22;32223;53.654;10.014;2022-09-03T10:23:21;21.80;91.30
46508;DHT22;32223;53.654;10.014;2022-09-03T10:28:33;22.00;91.10
46508;DHT22;32223;53.654;10.014;2022-09-03T10:36:24;21.30;90.30
46508;DHT22;32223;53.654;10.014;2022-09-03T10:39:04;21.50;90.40
46508;DHT22;32223;53.654;10.014;2022-09-03T10:45:11;21.60;87.90
46508;DHT22;32223;53.654;10.014;2022-09-03T10:53:12;21.60;85.40
46508;DHT22;32223;53.654;10.014;2022-09-03T10:56:03;21.90;85.80
46508;DHT22;32223;53.654;10.014;2022-09-03T11:01:16;22.70;81.50
46508;DHT22;32223;53.654;10.014;2022-09-03T11:03:58;22.80;80.10
46508;DHT22;32223;53.654;10.014;2022-09-03T11:06:46;23.00;79.10
46508;DHT22;32223;53.654;10.014;2022-09-03T11:09:26;23.00;79.10
46508;DHT22;32223;53.654;10.014;2022-09-03T11:12:02;22.70;78.50
46508;DHT22;32223;53.654;10.014;2022-09-03T11:14:34;22.50;79.60
46508;DHT22;32223;53.654;10.014;2022-09-03T11:17:16;22.50;78.90
46508;DHT22;32223;53.654;10.014;2022-09-03T11:19:50;22.70;79.40
46508;DHT22;32223;53.654;10.014;2022-09-03T11:22:18;23.00;80.30
46508;DHT22;32223;53.654;10.014;2022-09-03T11:24:53;23.10;79.00
46508;DHT22;32223;53.654;10.014;2022-09-03T11:30:23;22.90;79.60
46508;DHT22;32223;53.654;10.014;2022-09-03T11:32:59;22.80;78.00
46508;DHT22;32223;53.654;10.014;2022-09-03T11:35:27;22.90;79.10
46508;DHT22;32223;53.654;10.014;2022-09-03T11:38:00;23.10;78.40
46508;DHT22;32223;53.654;10.014;2022-09-03T11:40:35;23.40;78.00
46508;DHT22;32223;53.654;10.014;2022-09-03T11:43:11;23.60;75.50
46508;DHT22;32223;53.654;10.014;2022-09-03T11:45:38;23.50;74.80
46508;DHT22;32223;53.654;10.014;2022-09-03T11:48:17;23.30;75.30
46508;DHT22;32223;53.654;10.014;2022-09-03T11:50:52;23.10;73.60
46508;DHT22;32223;53.654;10.014;2022-09-03T11:58:31;23.40;73.10
46508;DHT22;32223;53.654;10.014;2022-09-03T12:01:01;23.20;72.50
46508;DHT22;32223;53.654;10.014;2022-09-03T12:03:42;22.80;73.00
46508;DHT22;32223;53.654;10.014;2022-09-03T12:12:11;22.70;72.00
46508;DHT22;32223;53.654;10.014;2022-09-03T12:20:33;23.40;69.20
46508;DHT22;32223;53.654;10.014;2022-09-03T12:22:59;23.10;69.70
46508;DHT22;32223;53.654;10.014;2022-09-03T12:25:27;23.00;70.00
46508;DHT22;32223;53.654;10.014;2022-09-03T12:27:53;23.40;70.20
46508;DHT22;32223;53.654;10.014;2022-09-03T12:30:22;24.00;70.90
46508;DHT22;32223;53.654;10.014;2022-09-03T12:32:49;24.40;68.10
46508;DHT22;32223;53.654;10.014;2022-09-03T12:35:16;24.90;67.20
46508;DHT22;32223;53.654;10.014;2022-09-03T12:37:43;25.50;66.80
46508;DHT22;32223;53.654;10.014;2022-09-03T12:40:25;25.50;65.40
46508;DHT22;32223;53.654;10.014;2022-09-03T12:42:51;25.90;65.70
46508;DHT22;32223;53.654;10.014;2022-09-03T12:45:26;26.50;64.10
46508;DHT22;32223;53.654;10.014;2022-09-03T12:47:52;26.80;62.50
46508;DHT22;32223;53.654;10.014;2022-09-03T12:50:20;26.30;61.10
46508;DHT22;32223;53.654;10.014;2022-09-03T12:52:56;26.20;62.50
46508;DHT22;32223;53.654;10.014;2022-09-03T12:55:28;25.80;60.60
46508;DHT22;32223;53.654;10.014;2022-09-03T12:58:24;25.30;62.00
46508;DHT22;32223;53.654;10.014;2022-09-03T13:01:05;25.40;62.30
46508;DHT22;32223;53.654;10.014;2022-09-03T13:03:57;26.30;61.50
46508;DHT22;32223;53.654;10.014;2022-09-03T13:06:33;27.50;59.80
46508;DHT22;32223;53.654;10.014;2022-09-03T13:09:07;28.70;58.90
46508;DHT22;32223;53.654;10.014;2022-09-03T13:11:34;29.00;57.40
46508;DHT22;32223;53.654;10.014;2022-09-03T13:14:09;29.30;55.90
46508;DHT22;32223;53.654;10.014;2022-09-03T13:19:19;29.30;53.80
46508;DHT22;32223;53.654;10.014;2022-09-03T13:30:03;26.10;56.70
46508;DHT22;32223;53.654;10.014;2022-09-03T13:33:04;27.10;56.90
46508;DHT22;32223;53.654;10.014;2022-09-03T13:36:03;28.80;55.40
46508;DHT22;32223;53.654;10.014;2022-09-03T13:38:43;30.10;53.40
46508;DHT22;32223;53.654;10.014;2022-09-03T13:41:28;30.60;52.70
46508;DHT22;32223;53.654;10.014;2022-09-03T13:44:08;31.10;51.70
46508;DHT22;32223;53.654;10.014;2022-09-03T13:47:00;31.20;50.60
46508;DHT22;32223;53.654;10.014;2022-09-03T13:49:50;30.80;51.20
46508;DHT22;32223;53.654;10.014;2022-09-03T13:52:47;30.20;51.00
46508;DHT22;32223;53.654;10.014;2022-09-03T13:58:36;30.10;51.80
46508;DHT22;32223;53.654;10.014;2022-09-03T14:01:16;29.50;51.10
46508;DHT22;32223;53.654;10.014;2022-09-03T14:03:51;28.50;52.10
46508;DHT22;32223;53.654;10.014;2022-09-03T14:06:45;28.60;52.60
46508;DHT22;32223;53.654;10.014;2022-09-03T14:15:14;30.50;50.80
46508;DHT22;32223;53.654;10.014;2022-09-03T14:17:51;30.90;50.00
46508;DHT22;32223;53.654;10.014;2022-09-03T14:20:27;30.50;49.50
46508;DHT22;32223;53.654;10.014;2022-09-03T14:25:55;28.80;51.20
46508;DHT22;32223;53.654;10.014;2022-09-03T14:28:43;28.40;51.00
46508;DHT22;32223;53.654;10.014;2022-09-03T14:31:23;29.00;51.20
46508;DHT22;32223;53.654;10.014;2022-09-03T14:33:59;29.60;50.60
46508;DHT22;32223;53.654;10.014;2022-09-03T14:36:43;30.60;50.40
46508;DHT22;32223;53.654;10.014;2022-09-03T14:39:32;31.30;49.20
46508;DHT22;32223;53.654;10.014;2022-09-03T14:42:17;31.60;48.50
46508;DHT22;32223;53.654;10.014;2022-09-03T14:47:38;32.10;48.50
46508;DHT22;32223;53.654;10.014;2022-09-03T14:53:09;29.80;50.00
46508;DHT22;32223;53.654;10.014;2022-09-03T14:58:35;30.20;49.60
46508;DHT22;32223;53.654;10.014;2022-09-03T15:09:34;30.50;48.60
46508;DHT22;32223;53.654;10.014;2022-09-03T15:14:51;30.60;48.30
46508;DHT22;32223;53.654;10.014;2022-09-03T15:20:10;30.00;48.00
46508;DHT22;32223;53.654;10.014;2022-09-03T15:25:40;30.20;48.20
46508;DHT22;32223;53.654;10.014;2022-09-03T15:31:09;29.70;48.50
46508;DHT22;32223;53.654;10.014;2022-09-03T15:36:36;30.00;48.60
46508;DHT22;32223;53.654;10.014;2022-09-03T15:39:15;30.50;47.90
46508;DHT22;32223;53.654;10.014;2022-09-03T15:42:10;30.60;47.70
46508;DHT22;32223;53.654;10.014;2022-09-03T15:44:46;30.80;48.00
46508;DHT22;32223;53.654;10.014;2022-09-03T15:47:38;30.60;47.60
46508;DHT22;32223;53.654;10.014;2022-09-03T15:51:02;30.50;47.80
46508;DHT22;32223;53.654;10.014;2022-09-03T15:58:47;30.10;47.80
46508;DHT22;32223;53.654;10.014;2022-09-03T16:07:17;30.40;47.60
46508;DHT22;32223;53.654;10.014;2022-09-03T16:10:07;30.20;48.60
46508;DHT22;32223;53.654;10.014;2022-09-03T16:13:00;30.10;48.00
46508;DHT22;32223;53.654;10.014;2022-09-03T16:15:39;30.30;48.20
46508;DHT22;32223;53.654;10.014;2022-09-03T16:21:27;30.00;47.70
46508;DHT22;32223;53.654;10.014;2022-09-03T16:23:58;29.20;48.70
46508;DHT22;32223;53.654;10.014;2022-09-03T16:26:57;28.80;49.20
46508;DHT22;32223;53.654;10.014;2022-09-03T16:29:27;28.40;49.50
46508;DHT22;32223;53.654;10.014;2022-09-03T16:48:38;24.70;52.90
46508;DHT22;32223;53.654;10.014;2022-09-03T16:51:16;23.70;54.20
46508;DHT22;32223;53.654;10.014;2022-09-03T17:02:42;21.90;57.70
46508;DHT22;32223;53.654;10.014;2022-09-03T17:10:48;21.30;59.50
46508;DHT22;32223;53.654;10.014;2022-09-03T17:18:47;20.90;61.00
46508;DHT22;32223;53.654;10.014;2022-09-03T17:24:20;20.60;61.20
46508;DHT22;32223;53.654;10.014;2022-09-03T17:35:16;20.20;62.30
46508;DHT22;32223;53.654;10.014;2022-09-03T17:43:37;19.90;63.30
46508;DHT22;32223;53.654;10.014;2022-09-03T17:46:23;19.80;63.50
46508;DHT22;32223;53.654;10.014;2022-09-03T17:49:01;19.70;63.70
46508;DHT22;32223;53.654;10.014;2022-09-03T17:54:15;19.50;64.70
46508;DHT22;32223;53.654;10.014;2022-09-03T17:59:47;19.40;64.60
46508;DHT22;32223;53.654;10.014;2022-09-03T18:02:36;19.20;64.90
46508;DHT22;32223;53.654;10.014;2022-09-03T18:05:17;19.10;65.10
46508;DHT22;32223;53.654;10.014;2022-09-03T18:08:12;19.00;65.60
46508;DHT22;32223;53.654;10.014;2022-09-03T18:16:05;18.80;66.40
46508;DHT22;32223;53.654;10.014;2022-09-03T18:18:34;18.70;66.90
46508;DHT22;32223;53.654;10.014;2022-09-03T18:21:06;18.50;67.80
46508;DHT22;32223;53.654;10.014;2022-09-03T18:26:59;18.30;68.50
46508;DHT22;32223;53.654;10.014;2022-09-03T18:32:43;18.10;69.10
46508;DHT22;32223;53.654;10.014;2022-09-03T18:35:30;18.00;69.20
46508;DHT22;32223;53.654;10.014;2022-09-03T18:38:17;17.90;69.80
46508;DHT22;32223;53.654;10.014;2022-09-03T18:54:40;17.40;72.80
46508;DHT22;32223;53.654;10.014;2022-09-03T18:57:30;17.30;73.20
46508;DHT22;32223;53.654;10.014;2022-09-03T19:00:16;17.20;73.70
46508;DHT22;32223;53.654;10.014;2022-09-03T19:03:27;17.10;74.50
46508;DHT22;32223;53.654;10.014;2022-09-03T19:06:31;17.00;74.90
46508;DHT22;32223;53.654;10.014;2022-09-03T19:12:42;16.80;77.50
46508;DHT22;32223;53.654;10.014;2022-09-03T19:15:33;16.80;78.40
46508;DHT22;32223;53.654;10.014;2022-09-03T19:21:39;16.60;81.50
46508;DHT22;32223;53.654;10.014;2022-09-03T19:24:29;16.60;81.90
46508;DHT22;32223;53.654;10.014;2022-09-03T19:30:13;16.50;85.50
46508;DHT22;32223;53.654;10.014;2022-09-03T19:33:14;16.40;86.80
46508;DHT22;32223;53.654;10.014;2022-09-03T19:36:27;16.40;87.70
46508;DHT22;32223;53.654;10.014;2022-09-03T19:45:26;16.20;89.70
46508;DHT22;32223;53.654;10.014;2022-09-03T19:51:21;16.20;91.20
46508;DHT22;32223;53.654;10.014;2022-09-03T19:54:07;16.10;91.20
46508;DHT22;32223;53.654;10.014;2022-09-03T19:56:55;16.00;91.50
46508;DHT22;32223;53.654;10.014;2022-09-03T19:59:41;16.00;91.80
46508;DHT22;32223;53.654;10.014;2022-09-03T20:02:26;16.00;92.20
46508;DHT22;32223;53.654;10.014;2022-09-03T20:05:15;15.90;92.80
46508;DHT22;32223;53.654;10.014;2022-09-03T20:07:59;15.90;92.90
46508;DHT22;32223;53.654;10.014;2022-09-03T20:10:44;15.90;93.00
46508;DHT22;32223;53.654;10.014;2022-09-03T20:13:17;15.80;93.30
46508;DHT22;32223;53.654;10.014;2022-09-03T20:23:43;15.60;94.60
46508;DHT22;32223;53.654;10.014;2022-09-03T20:26:23;15.60;95.00
46508;DHT22;32223;53.654;10.014;2022-09-03T20:29:01;15.60;95.50
46508;DHT22;32223;53.654;10.014;2022-09-03T20:32:10;15.50;95.40
46508;DHT22;32223;53.654;10.014;2022-09-03T20:37:37;15.50;96.80
46508;DHT22;32223;53.654;10.014;2022-09-03T20:40:28;15.40;96.90
46508;DHT22;32223;53.654;10.014;2022-09-03T20:45:59;15.40;97.70
46508;DHT22;32223;53.654;10.014;2022-09-03T20:52:12;15.30;98.80
46508;DHT22;32223;53.654;10.014;2022-09-03T21:00:23;15.30;99.90
46508;DHT22;32223;53.654;10.014;2022-09-03T21:05:44;15.20;99.90